Time;durP1;ratioP1;P1;durP2;ratioP2;P2;SDS_P1;SDS_P2;PMS_P1;PMS_P2;Temp;Humidity;BMP_temperature;BMP_pressure;BME280_temperature;BME280_humidity;BME280_pressure;Samples;Min_cycle;Max_cycle;Signal;HPM_P1;HPM_P2
2023/06/27 04:00:42;;;;;;;7.38;2.38;;;20.70;79.10;;;;;;5857481;23;19928;-70
2023/06/27 04:03:07;;;;;;;5.90;2.17;;;20.70;79.20;;;;;;4996091;28;20026;-70
2023/06/27 04:05:33;;;;;;;4.30;1.70;;;20.70;79.20;;;;;;4994803;28;20048;-70
2023/06/27 04:07:58;;;;;;;7.20;1.95;;;20.60;79.50;;;;;;4977933;28;20027;-69
2023/06/27 04:10:24;;;;;;;3.33;1.60;;;20.60;79.40;;;;;;4995840;28;20031;-69
2023/06/27 04:12:49;;;;;;;4.70;1.70;;;20.70;79.40;;;;;;4995647;28;20489;-69
2023/06/27 04:15:15;;;;;;;5.20;1.92;;;20.70;79.30;;;;;;4995953;28;20458;-69
2023/06/27 04:17:41;;;;;;;3.50;1.77;;;20.80;79.10;;;;;;4995395;28;20026;-69
2023/06/27 04:20:07;;;;;;;6.57;1.65;;;20.70;79.20;;;;;;4995107;28;20058;-69
2023/06/27 04:22:32;;;;;;;3.83;1.70;;;20.70;79.20;;;;;;4995202;28;20034;-69
2023/06/27 04:24:58;;;;;;;5.10;2.03;;;20.70;79.40;;;;;;4995105;28;20394;-69
2023/06/27 04:27:23;;;;;;;3.58;1.83;;;20.80;79.20;;;;;;4977448;28;20035;-69
2023/06/27 04:29:49;;;;;;;3.22;1.67;;;20.80;79.10;;;;;;4977810;28;20069;-69
2023/06/27 04:32:14;;;;;;;7.07;2.33;;;20.90;79.00;;;;;;4977903;28;20034;-69
2023/06/27 04:34:40;;;;;;;6.97;2.47;;;20.90;79.00;;;;;;4995540;28;20116;-68
2023/06/27 04:37:05;;;;;;;4.88;2.25;;;20.90;78.90;;;;;;4977423;28;20022;-69
2023/06/27 04:39:31;;;;;;;4.40;2.15;;;21.00;78.80;;;;;;4977839;28;20420;-68
2023/06/27 04:41:57;;;;;;;6.50;2.15;;;20.90;78.50;;;;;;4977474;28;20022;-68
2023/06/27 04:44:23;;;;;;;4.65;1.58;;;20.90;78.20;;;;;;4994862;28;20080;-68
2023/06/27 04:46:49;;;;;;;7.10;1.65;;;20.80;78.00;;;;;;4996194;28;20026;-69
2023/06/27 04:49:14;;;;;;;4.00;1.75;;;20.80;78.90;;;;;;4986234;28;20406;-68
2023/06/27 04:51:40;;;;;;;6.38;1.85;;;20.90;78.20;;;;;;4973573;28;20027;-69
2023/06/27 04:54:06;;;;;;;3.35;1.60;;;20.80;78.40;;;;;;4991844;28;20109;-68
2023/06/27 04:56:33;;;;;;;4.38;1.80;;;20.90;78.30;;;;;;4985372;28;20034;-68
2023/06/27 04:58:59;;;;;;;2.90;1.42;;;21.10;77.80;;;;;;4962531;28;20394;-68
2023/06/27 05:01:24;;;;;;;3.88;1.50;;;21.10;77.40;;;;;;4974592;28;20122;-70
2023/06/27 05:03:51;;;;;;;7.05;1.60;;;20.90;77.80;;;;;;4978456;28;20420;-67
2023/06/27 05:06:17;;;;;;;8.73;1.60;;;20.90;77.60;;;;;;4981129;28;20034;-71
2023/06/27 05:08:42;;;;;;;7.63;1.77;;;21.00;78.10;;;;;;4997053;28;20026;-69
2023/06/27 05:11:08;;;;;;;6.63;2.00;;;21.00;78.10;;;;;;4996820;28;20030;-70
2023/06/27 05:13:33;;;;;;;5.72;1.90;;;21.00;78.30;;;;;;4978331;28;20125;-69
2023/06/27 05:15:59;;;;;;;5.28;1.98;;;21.10;78.10;;;;;;4996587;28;20061;-69
2023/06/27 05:18:26;;;;;;;3.28;1.70;;;21.10;78.40;;;;;;4978370;28;20070;-67
2023/06/27 05:20:51;;;;;;;8.38;1.75;;;21.10;77.90;;;;;;4995949;28;20062;-68
2023/06/27 05:23:18;;;;;;;4.55;1.77;;;21.10;77.90;;;;;;4995805;28;20093;-68
2023/06/27 05:25:44;;;;;;;2.95;1.80;;;21.10;78.00;;;;;;4995798;28;20030;-69
2023/06/27 05:28:09;;;;;;;5.55;1.73;;;21.20;78.70;;;;;;4995351;28;20034;-67
2023/06/27 05:30:35;;;;;;;12.10;2.38;;;21.30;76.80;;;;;;4978046;28;20065;-69
2023/06/27 05:33:03;;;;;;;6.25;1.73;;;21.40;76.50;;;;;;4996530;28;20037;-69
2023/06/27 05:35:29;;;;;;;4.57;1.70;;;21.40;75.70;;;;;;4995082;28;20117;-67
2023/06/27 05:37:55;;;;;;;3.78;1.60;;;21.50;74.30;;;;;;4995227;28;20105;-69
2023/06/27 05:40:20;;;;;;;2.55;1.40;;;21.50;74.70;;;;;;4976288;28;20026;-67
2023/06/27 05:42:46;;;;;;;2.40;1.25;;;21.50;74.60;;;;;;4977279;28;20475;-68
2023/06/27 05:45:11;;;;;;;7.13;1.73;;;21.50;74.30;;;;;;4994213;28;20034;-68
2023/06/27 05:47:37;;;;;;;5.18;1.50;;;21.50;74.30;;;;;;4994512;28;20074;-68
2023/06/27 05:50:03;;;;;;;3.60;1.45;;;21.50;74.70;;;;;;4995599;28;20092;-68
2023/06/27 05:52:31;;;;;;;4.15;1.67;;;21.50;74.90;;;;;;4994154;28;20030;-68
2023/06/27 05:54:58;;;;;;;2.80;1.48;;;21.50;74.40;;;;;;4994321;28;20033;-68
2023/06/27 05:57:23;;;;;;;;;;;21.50;74.40;;;;;;4995019;28;20035;-68
2023/06/27 05:59:50;;;;;;;5.97;1.65;;;21.60;73.50;;;;;;4993673;28;19928;-68
2023/06/27 06:02:15;;;;;;;3.28;1.20;;;21.50;74.20;;;;;;4993405;28;20026;-68
2023/06/27 06:04:41;;;;;;;6.05;1.80;;;21.60;74.00;;;;;;4994475;28;20039;-69
2023/06/27 06:07:07;;;;;;;4.85;1.73;;;21.60;73.80;;;;;;4976098;28;20041;-69
2023/06/27 06:09:32;;;;;;;8.70;1.95;;;21.70;73.90;;;;;;4993997;28;20027;-68
2023/06/27 06:11:58;;;;;;;6.72;1.55;;;21.80;73.90;;;;;;4993886;28;20038;-68
2023/06/27 06:14:24;;;;;;;4.07;2.08;;;21.90;73.10;;;;;;4976095;28;20130;-68
2023/06/27 06:16:49;;;;;;;4.10;1.33;;;22.00;73.30;;;;;;4993830;28;20062;-68
2023/06/27 06:19:15;;;;;;;2.97;1.20;;;22.10;72.90;;;;;;4993655;28;20034;-67
2023/06/27 06:21:41;;;;;;;3.47;1.40;;;21.90;73.50;;;;;;4993624;28;20085;-68
2023/06/27 06:24:08;;;;;;;5.47;1.58;;;21.90;74.80;;;;;;4993976;28;20439;-69
2023/06/27 06:26:37;;;;;;;5.07;1.73;;;21.90;75.10;;;;;;4994134;28;20040;-67
2023/06/27 06:29:03;;;;;;;10.98;2.40;;;21.80;75.40;;;;;;4994132;28;20446;-67
2023/06/27 06:31:29;;;;;;;6.72;1.60;;;21.90;75.50;;;;;;4976435;28;20080;-67
2023/06/27 06:33:56;;;;;;;3.80;1.83;;;21.80;75.00;;;;;;4993470;28;20026;-67
2023/06/27 06:36:21;;;;;;;4.80;1.80;;;21.90;74.50;;;;;;4992804;28;20031;-67
2023/06/27 06:38:47;;;;;;;5.15;1.60;;;21.90;74.40;;;;;;4992801;28;20029;-67
2023/06/27 06:41:13;;;;;;;3.50;1.40;;;21.90;74.80;;;;;;4993370;28;20157;-67
2023/06/27 06:43:39;;;;;;;4.90;1.55;;;21.90;74.40;;;;;;4993353;28;20390;-66
2023/06/27 06:46:05;;;;;;;3.95;1.15;;;22.00;73.60;;;;;;4993444;28;20101;-67
2023/06/27 06:48:30;;;;;;;3.95;1.52;;;22.10;74.10;;;;;;4993913;28;20037;-67
2023/06/27 06:50:56;;;;;;;7.95;1.60;;;22.20;73.20;;;;;;4994139;28;20038;-66
2023/06/27 06:53:22;;;;;;;;;;;22.40;73.50;;;;;;4997310;28;20106;-67
2023/06/27 06:55:48;;;;;;;5.63;1.70;;;22.40;73.60;;;;;;4996729;28;19939;-67
2023/06/27 06:58:13;;;;;;;6.50;1.50;;;22.50;73.30;;;;;;4996902;28;20506;-68
2023/06/27 07:00:39;;;;;;;4.50;1.50;;;22.50;73.00;;;;;;4996952;28;20569;-67
2023/06/27 07:03:08;;;;;;;5.18;1.70;;;22.40;72.80;;;;;;4979292;28;20438;-67
2023/06/27 07:05:35;;;;;;;5.10;1.40;;;22.30;72.40;;;;;;4996153;28;20026;-67
2023/06/27 07:08:01;;;;;;;3.28;1.45;;;22.30;72.80;;;;;;4996585;28;20376;-67
2023/06/27 07:10:26;;;;;;;5.03;1.90;;;22.30;73.00;;;;;;4996621;28;20034;-67
2023/06/27 07:12:52;;;;;;;7.78;1.65;;;22.40;73.10;;;;;;4996431;28;20141;-67
2023/06/27 07:15:18;;;;;;;5.85;1.73;;;22.50;72.80;;;;;;4996277;28;20440;-67
2023/06/27 07:17:43;;;;;;;;;;;22.60;72.40;;;;;;4996796;28;20113;-67
2023/06/27 07:20:09;;;;;;;4.57;1.85;;;22.70;72.40;;;;;;4996570;28;19937;-67
2023/06/27 07:22:35;;;;;;;11.30;2.40;;;22.80;71.90;;;;;;4996096;28;20046;-67
2023/06/27 07:25:01;;;;;;;4.32;2.05;;;22.90;71.90;;;;;;4996224;28;20034;-68
2023/06/27 07:27:26;;;;;;;;;;;23.00;72.00;;;;;;4979146;28;20057;-67
2023/06/27 07:29:51;;;;;;;6.72;1.55;;;23.10;71.50;;;;;;4996149;28;19913;-67
2023/06/27 07:32:17;;;;;;;5.43;1.73;;;23.10;71.50;;;;;;4978401;28;20064;-67
2023/06/27 07:34:43;;;;;;;;;;;23.00;71.90;;;;;;4995944;28;20050;-66
2023/06/27 07:37:08;;;;;;;5.78;1.60;;;23.10;71.70;;;;;;4995241;28;19906;-67
2023/06/27 07:39:35;;;;;;;4.95;1.73;;;23.10;71.30;;;;;;4995830;28;20022;-67
2023/06/27 07:42:01;;;;;;;4.45;1.52;;;23.30;71.20;;;;;;4995572;28;20049;-67
2023/06/27 07:44:26;;;;;;;3.42;1.35;;;23.20;70.40;;;;;;4995538;28;20467;-67
2023/06/27 07:46:52;;;;;;;7.05;1.90;;;23.30;71.10;;;;;;4995818;28;20041;-66
2023/06/27 07:49:17;;;;;;;;;;;23.90;70.60;;;;;;4978710;28;20023;-67
2023/06/27 07:51:45;;;;;;;3.90;1.75;;;25.50;67.80;;;;;;4995474;28;19909;-68
2023/06/27 07:54:11;;;;;;;5.18;2.13;;;27.20;65.00;;;;;;4977857;28;20396;-67
2023/06/27 07:56:36;;;;;;;5.05;1.67;;;27.80;63.20;;;;;;4995459;28;20105;-67
2023/06/27 07:59:04;;;;;;;4.70;1.50;;;28.00;62.00;;;;;;4995428;28;20026;-66
2023/06/27 08:01:30;;;;;;;3.03;1.75;;;27.60;62.50;;;;;;4995175;28;20037;-67
2023/06/27 08:03:55;;;;;;;6.05;1.40;;;27.00;64.10;;;;;;4977028;28;20023;-67
2023/06/27 08:06:21;;;;;;;6.20;1.75;;;26.70;63.10;;;;;;4977395;28;20033;-67
2023/06/27 08:08:47;;;;;;;3.65;1.27;;;26.30;63.70;;;;;;4995243;28;20093;-67
2023/06/27 08:11:13;;;;;;;3.92;1.30;;;26.20;64.00;;;;;;4995028;28;20046;-67
2023/06/27 08:13:41;;;;;;;4.55;1.83;;;26.20;64.20;;;;;;4995276;28;20113;-66
2023/06/27 08:16:08;;;;;;;4.85;1.80;;;26.10;63.80;;;;;;4995015;28;20050;-67
2023/06/27 08:18:34;;;;;;;6.15;1.52;;;26.00;64.30;;;;;;4995149;28;20033;-67
2023/06/27 08:21:00;;;;;;;3.65;1.45;;;26.00;64.10;;;;;;4995041;28;20030;-67
2023/06/27 08:23:26;;;;;;;4.63;1.63;;;26.30;64.20;;;;;;4995408;28;20486;-67
2023/06/27 08:25:53;;;;;;;2.75;1.63;;;26.40;63.00;;;;;;4995758;28;20502;-67
2023/06/27 08:28:18;;;;;;;5.25;1.77;;;26.50;63.10;;;;;;4995522;28;20026;-67
2023/06/27 08:30:44;;;;;;;4.15;1.50;;;26.70;61.70;;;;;;4995224;28;20026;-68
2023/06/27 08:33:09;;;;;;;3.58;1.52;;;26.90;62.10;;;;;;4995245;28;20034;-67
2023/06/27 08:35:35;;;;;;;3.88;1.63;;;27.00;61.40;;;;;;4995180;28;20360;-67
2023/06/27 08:38:01;;;;;;;2.78;1.50;;;27.30;61.70;;;;;;4994797;28;20018;-67
2023/06/27 08:40:27;;;;;;;3.90;1.55;;;27.20;61.20;;;;;;4994824;28;20354;-67
2023/06/27 08:42:53;;;;;;;6.28;1.30;;;27.40;61.20;;;;;;4994909;28;20031;-67
2023/06/27 08:45:18;;;;;;;3.88;1.42;;;27.70;60.50;;;;;;4995022;28;20104;-66
2023/06/27 08:47:46;;;;;;;3.55;1.35;;;27.90;60.00;;;;;;4977269;28;20054;-67
2023/06/27 08:50:15;;;;;;;3.63;1.63;;;28.70;58.90;;;;;;4994895;28;20129;-68
2023/06/27 08:52:47;;;;;;;4.68;1.30;;;29.30;58.60;;;;;;4994429;28;20030;-66
2023/06/27 08:55:25;;;;;;;3.88;1.42;;;30.30;57.10;;;;;;4994782;28;20369;-67
2023/06/27 08:57:53;;;;;;;3.75;1.27;;;30.70;56.70;;;;;;4995037;28;20436;-67
2023/06/27 09:00:22;;;;;;;4.90;1.50;;;30.90;56.10;;;;;;4977171;28;20030;-67
2023/06/27 09:02:48;;;;;;;4.10;1.60;;;30.60;56.10;;;;;;4994983;28;20022;-67
2023/06/27 09:05:15;;;;;;;5.18;1.38;;;30.50;56.30;;;;;;4994411;28;20030;-67
2023/06/27 09:07:41;;;;;;;3.75;1.33;;;30.30;55.80;;;;;;4994096;28;20495;-67
2023/06/27 09:10:08;;;;;;;5.65;2.10;;;29.90;56.50;;;;;;4994727;28;20410;-67
2023/06/27 09:12:34;;;;;;;5.13;1.42;;;29.70;56.70;;;;;;4994634;28;20481;-66
2023/06/27 09:15:00;;;;;;;3.85;1.40;;;29.80;56.70;;;;;;4994645;28;20476;-67
2023/06/27 09:17:26;;;;;;;3.42;1.58;;;29.30;56.80;;;;;;4994461;28;20026;-67
2023/06/27 09:19:51;;;;;;;4.28;2.08;;;28.70;58.30;;;;;;4994724;28;20033;-67
2023/06/27 09:22:19;;;;;;;6.20;1.70;;;27.90;58.10;;;;;;4994875;28;20029;-66
2023/06/27 09:24:46;;;;;;;4.93;1.60;;;27.70;59.10;;;;;;4994637;28;20026;-67
2023/06/27 09:27:31;;;;;;;5.78;1.50;;;28.00;59.20;;;;;;4994333;28;20023;-67
2023/06/27 09:30:01;;;;;;;4.07;1.73;;;28.30;58.80;;;;;;4994497;28;20023;-67
2023/06/27 09:32:27;;;;;;;3.08;1.23;;;28.30;58.90;;;;;;4977166;28;20030;-67
2023/06/27 09:34:52;;;;;;;3.65;1.42;;;28.40;58.60;;;;;;4994242;28;20038;-67
2023/06/27 09:37:28;;;;;;;3.78;1.83;;;28.60;58.40;;;;;;4994463;28;20026;-67
2023/06/27 09:39:54;;;;;;;5.57;1.67;;;28.80;57.90;;;;;;4999128;28;20026;-67
2023/06/27 09:42:20;;;;;;;4.13;1.52;;;28.00;57.80;;;;;;4999349;28;20022;-67
2023/06/27 09:44:45;;;;;;;8.10;1.90;;;27.30;59.40;;;;;;4998278;28;20023;-68
2023/06/27 09:47:11;;;;;;;4.85;1.48;;;27.60;59.30;;;;;;4997841;28;20030;-68
2023/06/27 09:49:41;;;;;;;8.45;1.70;;;27.90;59.10;;;;;;4997360;28;20072;-68
2023/06/27 09:52:08;;;;;;;6.70;1.73;;;27.60;59.10;;;;;;4980125;28;20018;-67
2023/06/27 09:54:44;;;;;;;6.95;2.30;;;27.20;60.20;;;;;;4980297;28;20037;-68
2023/06/27 09:57:16;;;;;;;8.63;3.30;;;27.70;60.20;;;;;;4997842;28;20065;-67
2023/06/27 09:59:42;;;;;;;8.15;2.03;;;28.10;60.10;;;;;;4994389;28;20045;-66
2023/06/27 10:02:16;;;;;;;4.55;1.98;;;28.80;59.90;;;;;;4994966;28;20499;-66
2023/06/27 10:04:42;;;;;;;4.88;1.50;;;29.30;58.60;;;;;;4994242;28;20022;-67
2023/06/27 10:07:13;;;;;;;5.57;2.13;;;29.20;58.20;;;;;;4993482;28;20026;-67
2023/06/27 10:09:39;;;;;;;5.18;2.30;;;28.70;58.80;;;;;;4993819;28;20101;-67
2023/06/27 10:12:05;;;;;;;6.25;2.20;;;28.40;59.00;;;;;;4993563;28;20061;-68
2023/06/27 10:14:32;;;;;;;7.07;2.20;;;28.50;59.50;;;;;;4976585;28;20026;-66
2023/06/27 10:17:00;;;;;;;6.20;1.60;;;29.20;59.90;;;;;;4993785;28;20113;-66
2023/06/27 10:19:26;;;;;;;5.25;2.08;;;30.10;58.10;;;;;;4993981;28;20085;-66
2023/06/27 10:21:51;;;;;;;7.45;1.90;;;30.40;57.10;;;;;;4995172;28;20022;-67
2023/06/27 10:24:18;;;;;;;5.35;2.00;;;30.30;57.70;;;;;;4995928;28;20035;-66
2023/06/27 10:26:53;;;;;;;4.65;1.80;;;30.00;57.30;;;;;;4998492;28;20031;-67
2023/06/27 10:29:18;;;;;;;5.60;1.65;;;30.00;57.80;;;;;;4998459;28;20022;-67
2023/06/27 10:31:49;;;;;;;3.80;1.98;;;30.10;57.50;;;;;;4999177;28;20537;-66
2023/06/27 10:34:24;;;;;;;4.82;2.05;;;29.80;57.40;;;;;;4983097;28;20109;-67
2023/06/27 10:36:54;;;;;;;3.90;1.50;;;29.60;57.70;;;;;;4998928;28;20030;-66
2023/06/27 10:39:27;;;;;;;5.38;1.83;;;29.30;57.90;;;;;;4999059;28;20475;-66
2023/06/27 10:42:01;;;;;;;8.02;1.98;;;28.70;59.20;;;;;;4981929;28;20117;-66
2023/06/27 10:44:27;;;;;;;4.78;2.20;;;28.50;59.00;;;;;;4982712;28;20479;-66
2023/06/27 10:47:16;;;;;;;5.68;1.83;;;28.10;59.00;;;;;;5001037;28;20031;-67
2023/06/27 10:49:45;;;;;;;5.13;1.67;;;28.10;59.30;;;;;;4993817;28;20106;-67
2023/06/27 10:52:19;;;;;;;4.68;2.00;;;28.00;58.70;;;;;;4996921;28;20022;-67
2023/06/27 10:54:44;;;;;;;3.50;1.48;;;27.90;59.40;;;;;;4997184;28;20427;-66
2023/06/27 10:57:15;;;;;;;6.63;1.75;;;28.00;59.60;;;;;;4997117;28;20098;-66
2023/06/27 10:59:45;;;;;;;4.88;1.55;;;28.00;60.00;;;;;;4996747;28;20479;-66
2023/06/27 11:02:11;;;;;;;5.80;1.67;;;27.50;60.40;;;;;;4996600;28;20057;-67
2023/06/27 11:04:42;;;;;;;4.35;1.50;;;28.00;60.30;;;;;;4996867;28;20468;-67
2023/06/27 11:07:10;;;;;;;4.28;1.75;;;28.80;59.70;;;;;;4996170;28;20060;-66
2023/06/27 11:09:36;;;;;;;5.13;2.40;;;29.10;59.20;;;;;;4996980;28;20022;-66
2023/06/27 11:12:14;;;;;;;5.30;2.00;;;29.40;59.30;;;;;;4996785;28;20023;-67
2023/06/27 11:14:44;;;;;;;5.10;1.70;;;29.20;59.10;;;;;;4996732;28;20054;-66
2023/06/27 11:17:14;;;;;;;6.07;1.90;;;29.40;58.80;;;;;;4996530;28;20332;-67
2023/06/27 11:19:40;;;;;;;3.70;1.60;;;29.00;59.00;;;;;;4996527;28;20109;-66
2023/06/27 11:22:06;;;;;;;5.22;2.20;;;28.70;59.50;;;;;;4996381;28;20018;-66
2023/06/27 11:24:32;;;;;;;7.93;2.05;;;28.00;60.40;;;;;;4996617;28;20141;-66
2023/06/27 11:27:00;;;;;;;4.47;1.90;;;27.60;61.10;;;;;;4996482;28;20022;-66
2023/06/27 11:29:27;;;;;;;9.20;1.75;;;27.10;61.70;;;;;;4995807;28;20036;-66
2023/06/27 11:31:55;;;;;;;4.03;1.60;;;26.80;61.90;;;;;;4979114;28;20023;-65
2023/06/27 11:34:21;;;;;;;4.13;1.70;;;27.00;62.80;;;;;;4996225;28;20029;-68
2023/06/27 11:36:47;;;;;;;3.45;1.70;;;26.50;62.30;;;;;;4978138;28;20113;-69
2023/06/27 11:39:13;;;;;;;5.00;1.77;;;26.80;63.80;;;;;;4992016;28;20030;-69
2023/06/27 11:41:40;;;;;;;4.53;2.08;;;26.80;62.20;;;;;;4983141;28;20117;-68
2023/06/27 11:44:13;;;;;;;3.50;1.52;;;26.80;64.60;;;;;;4969736;28;20101;-68
2023/06/27 11:46:55;;;;;;;10.63;2.30;;;26.60;63.90;;;;;;4982824;28;20022;-68
2023/06/27 11:49:25;;;;;;;3.22;1.95;;;27.00;63.30;;;;;;4959056;28;20114;-70
2023/06/27 11:51:51;;;;;;;4.60;1.70;;;27.30;64.10;;;;;;4976283;28;20117;-69
2023/06/27 11:54:18;;;;;;;4.88;2.25;;;27.50;61.70;;;;;;4976808;28;20491;-70
2023/06/27 11:56:45;;;;;;;6.90;2.28;;;27.30;61.70;;;;;;4958887;28;20040;-67
2023/06/27 11:59:10;;;;;;;5.55;2.08;;;27.20;62.50;;;;;;4976415;28;20023;-66
2023/06/27 12:01:40;;;;;;;4.72;1.98;;;26.80;63.60;;;;;;4976184;28;20035;-66
2023/06/27 12:04:15;;;;;;;3.90;2.03;;;26.80;63.40;;;;;;4978032;28;20030;-67
2023/06/27 12:06:48;;;;;;;5.25;1.80;;;26.70;63.30;;;;;;4991257;28;20030;-67
2023/06/27 12:09:24;;;;;;;3.10;1.60;;;26.60;63.80;;;;;;4984064;28;20038;-68
2023/06/27 12:11:52;;;;;;;3.78;2.03;;;26.60;63.40;;;;;;4978044;28;20030;-66
2023/06/27 12:14:21;;;;;;;4.22;1.90;;;26.60;63.20;;;;;;4995340;28;20037;-66
2023/06/27 12:16:47;;;;;;;6.18;2.35;;;26.70;63.20;;;;;;4995757;28;20031;-66
2023/06/27 12:19:12;;;;;;;4.68;1.75;;;26.90;63.20;;;;;;4977934;28;20047;-67
2023/06/27 12:21:38;;;;;;;2.78;1.98;;;27.10;63.30;;;;;;4977590;28;20117;-67
2023/06/27 12:24:04;;;;;;;5.13;1.88;;;26.90;62.30;;;;;;4992416;28;20030;-67
2023/06/27 12:26:30;;;;;;;6.10;2.05;;;26.70;61.60;;;;;;4967834;28;20182;-67
2023/06/27 12:29:00;;;;;;;4.30;1.60;;;26.50;61.20;;;;;;4977598;28;20554;-67
2023/06/27 12:31:26;;;;;;;5.15;1.80;;;26.60;61.50;;;;;;4991225;28;20015;-67
2023/06/27 12:33:52;;;;;;;5.25;1.73;;;26.70;61.20;;;;;;4983454;28;20030;-67
2023/06/27 12:36:23;;;;;;;6.65;1.50;;;26.60;62.10;;;;;;4983940;28;20395;-67
2023/06/27 12:38:49;;;;;;;3.58;1.73;;;26.70;62.00;;;;;;4975121;28;20019;-67
2023/06/27 12:41:18;;;;;;;4.28;1.92;;;26.50;63.70;;;;;;4971079;28;20022;-67
2023/06/27 12:43:43;;;;;;;4.63;1.58;;;26.40;64.10;;;;;;4988260;28;20399;-66
2023/06/27 12:46:09;;;;;;;;;;;26.50;64.10;;;;;;4996393;28;20026;-68
2023/06/27 12:48:34;;;;;;;5.30;1.80;;;26.40;63.80;;;;;;5000579;28;19909;-68
2023/06/27 12:51:00;;;;;;;4.70;1.80;;;26.50;63.30;;;;;;4996353;28;20034;-67
2023/06/27 12:53:26;;;;;;;;;;;26.40;62.50;;;;;;4996052;28;20109;-68
2023/06/27 12:55:52;;;;;;;4.20;1.77;;;26.20;64.10;;;;;;4995918;28;19916;-68
2023/06/27 12:58:17;;;;;;;4.93;1.55;;;26.40;63.50;;;;;;4993036;28;20368;-71
2023/06/27 13:00:46;;;;;;;4.03;1.90;;;26.40;63.60;;;;;;4989532;28;20038;-70
2023/06/27 13:03:12;;;;;;;6.85;1.65;;;26.40;63.40;;;;;;4990542;28;20142;-70
2023/06/27 13:05:37;;;;;;;;;;;26.30;62.90;;;;;;4980999;28;20491;-70
2023/06/27 13:08:03;;;;;;;3.38;1.83;;;26.30;62.70;;;;;;4981708;28;19913;-70
2023/06/27 13:10:29;;;;;;;;;;;26.40;63.90;;;;;;4981441;28;20045;-67
2023/06/27 13:12:55;;;;;;;4.20;2.10;;;26.50;62.60;;;;;;4960946;28;19906;-66
2023/06/27 13:15:20;;;;;;;4.30;1.95;;;26.60;62.50;;;;;;4957902;28;20026;-67
2023/06/27 13:17:46;;;;;;;;;;;26.60;62.50;;;;;;4976096;28;20030;-66
2023/06/27 13:20:12;;;;;;;5.05;1.65;;;26.60;63.20;;;;;;4984638;28;19913;-72
2023/06/27 13:22:39;;;;;;;5.35;1.77;;;26.50;63.60;;;;;;4979032;28;20033;-72
2023/06/27 13:25:06;;;;;;;4.03;2.00;;;26.50;63.50;;;;;;4996349;28;20037;-72
2023/06/27 13:27:31;;;;;;;6.03;2.60;;;26.50;63.30;;;;;;4978977;28;20466;-73
2023/06/27 13:29:57;;;;;;;;;;;26.60;63.60;;;;;;4997456;28;20030;-73
2023/06/27 13:32:23;;;;;;;5.68;2.28;;;26.70;62.80;;;;;;4996868;28;19933;-67
2023/06/27 13:34:49;;;;;;;5.85;2.00;;;26.80;63.40;;;;;;5012107;28;20090;-76
2023/06/27 13:37:15;;;;;;;4.40;1.85;;;26.70;61.90;;;;;;4992984;28;20094;-76
2023/06/27 13:39:41;;;;;;;4.30;1.80;;;26.60;63.70;;;;;;4982483;28;20030;-71
2023/06/27 13:42:07;;;;;;;3.85;2.13;;;26.70;62.70;;;;;;4982574;28;20053;-70
2023/06/27 13:44:32;;;;;;;7.10;2.00;;;26.80;63.50;;;;;;4989549;28;20480;-75
2023/06/27 13:46:58;;;;;;;3.08;1.60;;;26.90;62.50;;;;;;4985762;28;20061;-75
2023/06/27 13:49:27;;;;;;;6.53;2.17;;;26.80;62.40;;;;;;4987504;28;20066;-78
2023/06/27 13:51:54;;;;;;;4.35;2.03;;;26.70;62.20;;;;;;4983122;28;20344;-76
2023/06/27 13:54:19;;;;;;;3.92;1.70;;;26.60;62.00;;;;;;4982016;28;20045;-74
2023/06/27 13:56:48;;;;;;;;;;;26.50;62.60;;;;;;4982701;28;20062;-76
2023/06/27 13:59:13;;;;;;;4.38;1.90;;;26.30;62.30;;;;;;4982651;28;19930;-76
2023/06/27 14:01:39;;;;;;;;;;;26.20;62.40;;;;;;4983368;28;20041;-74
2023/06/27 14:04:05;;;;;;;6.93;2.05;;;26.20;62.60;;;;;;4982625;28;19933;-74
2023/06/27 14:06:31;;;;;;;6.22;2.03;;;26.30;62.20;;;;;;4981960;28;20081;-73
2023/06/27 14:08:57;;;;;;;3.97;2.10;;;26.40;61.90;;;;;;4976535;28;20467;-76
2023/06/27 14:11:22;;;;;;;;;;;26.50;63.30;;;;;;4985641;28;20054;-73
2023/06/27 14:13:51;;;;;;;5.25;1.80;;;26.80;61.90;;;;;;4995754;28;19906;-73
2023/06/27 14:16:20;;;;;;;5.40;1.55;;;26.90;62.00;;;;;;5003900;28;20022;-74
2023/06/27 14:18:46;;;;;;;3.33;1.70;;;27.10;61.80;;;;;;4991042;28;20022;-73
2023/06/27 14:21:12;;;;;;;9.90;2.38;;;27.10;61.60;;;;;;5007714;28;20491;-73
2023/06/27 14:23:41;;;;;;;6.93;1.92;;;27.20;61.30;;;;;;4998461;28;20022;-74
2023/06/27 14:26:08;;;;;;;6.75;1.92;;;27.10;61.30;;;;;;5006049;28;20030;-74
2023/06/27 14:28:34;;;;;;;5.38;2.35;;;27.20;61.30;;;;;;5005823;28;20054;-72
2023/06/27 14:31:01;;;;;;;3.72;1.80;;;27.00;61.40;;;;;;4978393;28;20026;-70
2023/06/27 14:33:27;;;;;;;4.68;2.05;;;27.10;62.20;;;;;;4996868;28;20411;-72
2023/06/27 14:35:54;;;;;;;7.45;1.90;;;27.00;61.90;;;;;;4997799;28;20038;-72
2023/06/27 14:38:20;;;;;;;5.13;2.50;;;26.90;62.10;;;;;;4998448;28;20025;-70
2023/06/27 14:40:46;;;;;;;4.28;1.90;;;26.90;62.10;;;;;;4999458;28;20022;-72
2023/06/27 14:43:12;;;;;;;5.72;1.88;;;26.70;62.30;;;;;;4998248;28;20077;-71
2023/06/27 14:45:39;;;;;;;5.15;2.10;;;26.90;62.00;;;;;;4988502;28;20027;-69
2023/06/27 14:48:05;;;;;;;4.65;2.00;;;27.20;61.90;;;;;;4985125;28;20402;-70
2023/06/27 14:50:38;;;;;;;4.57;2.00;;;27.20;60.90;;;;;;5011083;28;20396;-72
2023/06/27 14:53:05;;;;;;;5.05;1.90;;;27.10;60.30;;;;;;4992835;28;20498;-70
2023/06/27 14:55:31;;;;;;;4.03;1.73;;;27.20;60.80;;;;;;5009794;28;20049;-72
2023/06/27 14:57:57;;;;;;;4.00;1.83;;;27.40;60.50;;;;;;5007665;28;20019;-71
2023/06/27 15:00:22;;;;;;;5.18;1.85;;;27.40;60.20;;;;;;5001247;28;20571;-71
2023/06/27 15:02:48;;;;;;;6.10;2.08;;;27.40;60.10;;;;;;4998487;28;20061;-71
2023/06/27 15:05:14;;;;;;;7.18;2.60;;;27.30;60.20;;;;;;4994943;28;20455;-70
2023/06/27 15:07:40;;;;;;;3.20;1.80;;;27.30;60.00;;;;;;4978493;28;20062;-70
2023/06/27 15:10:07;;;;;;;4.40;1.90;;;27.20;60.60;;;;;;4983395;28;20049;-71
2023/06/27 15:12:33;;;;;;;3.75;1.75;;;27.10;60.50;;;;;;4989306;28;20036;-71
2023/06/27 15:14:59;;;;;;;4.75;2.10;;;27.20;60.00;;;;;;4969577;28;20030;-73
2023/06/27 15:17:25;;;;;;;6.85;2.05;;;27.10;60.40;;;;;;4986229;28;20033;-69
2023/06/27 15:19:53;;;;;;;5.90;2.95;;;27.10;60.10;;;;;;5004964;28;20054;-68
2023/06/27 15:22:23;;;;;;;4.18;1.90;;;27.00;60.40;;;;;;4970727;28;20081;-70
2023/06/27 15:24:52;;;;;;;3.03;1.98;;;27.10;60.80;;;;;;4981032;28;20023;-70
2023/06/27 15:27:18;;;;;;;7.45;2.15;;;27.20;60.50;;;;;;4980784;28;20027;-71
2023/06/27 15:29:44;;;;;;;4.68;1.58;;;27.30;60.30;;;;;;4983080;28;20519;-69
2023/06/27 15:32:10;;;;;;;4.88;2.47;;;27.30;60.80;;;;;;4998504;28;20035;-71
2023/06/27 15:34:38;;;;;;;4.63;1.95;;;27.10;59.80;;;;;;4972447;28;20027;-71
2023/06/27 15:37:04;;;;;;;6.68;2.20;;;26.90;60.30;;;;;;4980355;28;20030;-73
2023/06/27 15:39:30;;;;;;;4.32;1.60;;;26.60;60.60;;;;;;5006213;28;20019;-76
2023/06/27 15:41:55;;;;;;;9.57;1.90;;;26.60;60.70;;;;;;4981461;28;20030;-76
2023/06/27 15:44:21;;;;;;;5.18;2.20;;;26.70;60.50;;;;;;5000042;28;20022;-75
2023/06/27 15:46:48;;;;;;;5.35;2.35;;;26.60;60.30;;;;;;4985613;28;20095;-76
2023/06/27 15:49:14;;;;;;;5.72;2.00;;;26.70;60.10;;;;;;4986171;28;20030;-76
2023/06/27 15:51:41;;;;;;;4.68;1.95;;;26.70;60.30;;;;;;4978269;28;20054;-76
2023/06/27 15:54:07;;;;;;;5.30;1.90;;;26.80;60.00;;;;;;4966436;28;20031;-69
2023/06/27 15:56:32;;;;;;;6.55;2.00;;;26.90;61.50;;;;;;4980121;28;20038;-69
2023/06/27 15:58:58;;;;;;;3.28;1.95;;;26.70;60.10;;;;;;4979069;28;20074;-69
2023/06/27 16:01:23;;;;;;;4.53;2.10;;;26.60;60.00;;;;;;4980235;28;20031;-75
2023/06/27 16:03:49;;;;;;;5.00;1.90;;;26.40;60.20;;;;;;4978499;28;20027;-77
2023/06/27 16:06:14;;;;;;;6.75;1.90;;;26.50;60.40;;;;;;4996635;28;20033;-77
2023/06/27 16:08:40;;;;;;;5.07;2.10;;;26.40;59.90;;;;;;4979407;28;20030;-76
2023/06/27 16:11:06;;;;;;;5.60;2.40;;;26.50;60.00;;;;;;4976962;28;20031;-77
2023/06/27 16:13:31;;;;;;;7.10;1.98;;;26.60;59.50;;;;;;4977799;28;20041;-77
2023/06/27 16:15:57;;;;;;;3.50;1.80;;;26.60;59.40;;;;;;4976924;28;20114;-76
2023/06/27 16:18:23;;;;;;;5.53;2.15;;;26.60;59.20;;;;;;4975913;28;20046;-76
2023/06/27 16:20:49;;;;;;;;;;;26.70;59.00;;;;;;4976126;28;20031;-76
2023/06/27 16:23:16;;;;;;;3.90;1.60;;;26.60;59.20;;;;;;4992401;28;19906;-77
2023/06/27 16:25:42;;;;;;;4.80;1.70;;;26.60;59.00;;;;;;4993228;28;20091;-76
2023/06/27 16:28:07;;;;;;;4.43;1.70;;;26.50;58.60;;;;;;4970317;28;20077;-75
2023/06/27 16:30:34;;;;;;;;;;;26.40;58.90;;;;;;4982409;28;20484;-75
2023/06/27 16:33:00;;;;;;;4.85;1.92;;;26.30;58.40;;;;;;4980207;28;19937;-76
2023/06/27 16:35:27;;;;;;;4.43;1.65;;;26.30;58.20;;;;;;4976760;28;20073;-73
2023/06/27 16:37:53;;;;;;;6.63;1.75;;;26.20;58.50;;;;;;4984270;28;20090;-73
2023/06/27 16:40:19;;;;;;;1.95;1.52;;;26.10;59.20;;;;;;4964254;28;20026;-73
2023/06/27 16:42:45;;;;;;;5.63;2.17;;;26.20;59.30;;;;;;4984616;28;20074;-71
2023/06/27 16:45:11;;;;;;;;;;;26.20;60.20;;;;;;4979684;28;20064;-70
2023/06/27 16:47:36;;;;;;;3.47;1.92;;;26.10;59.80;;;;;;4983383;28;20221;-75